Time;durP1;ratioP1;P1;durP2;ratioP2;P2;SDS_P1;SDS_P2;PMS_P1;PMS_P2;Temp;Humidity;BMP_temperature;BMP_pressure;BME280_temperature;BME280_humidity;BME280_pressure;Samples;Min_cycle;Max_cycle;Signal;HPM_P1;HPM_P2
2022/03/13 00:00:49;;;;;;;;;;;7.50;39.20;;;;;;2531496;55;20068;-77
2022/03/13 00:03:16;;;;;;;;;;;7.40;38.80;;;;;;2294831;58;20180;-81
2022/03/13 00:05:45;;;;;;;;;;;7.40;39.20;;;;;;2531778;55;20105;-78
2022/03/13 00:08:16;;;;;;;;;;;7.30;38.40;;;;;;2296200;58;20073;-78
2022/03/13 00:10:47;;;;;;;;;;;7.30;39.20;;;;;;2531507;55;20100;-77
2022/03/13 00:13:14;;;;;;;;;;;7.30;39.20;;;;;;2531813;55;20109;-79
2022/03/13 00:15:42;;;;;;;;;;;7.30;40.00;;;;;;2296394;58;20075;-78
2022/03/13 00:18:11;;;;;;;;;;;7.30;39.40;;;;;;2296580;58;20179;-79
2022/03/13 00:20:38;;;;;;;;;;;7.30;39.30;;;;;;2529965;55;20140;-78
2022/03/13 00:23:05;;;;;;;;;;;7.30;40.10;;;;;;2531879;54;20129;-80
2022/03/13 00:25:31;;;;;;;;;;;7.30;40.50;;;;;;2295593;58;20369;-78
2022/03/13 00:27:58;;;;;;;;;;;7.30;39.80;;;;;;2531938;55;20120;-79
2022/03/13 00:30:25;;;;;;;;;;;7.20;39.20;;;;;;2295963;58;20065;-77
2022/03/13 00:32:51;;;;;;;;;;;7.20;39.10;;;;;;2296126;58;20080;-77
2022/03/13 00:35:18;;;;;;;;;;;7.10;39.10;;;;;;2296595;58;20136;-79
2022/03/13 00:37:44;;;;;;;;;;;7.20;39.70;;;;;;2295837;58;20140;-78
2022/03/13 00:40:12;;;;;;;;;;;7.10;39.90;;;;;;2295716;58;20116;-77
2022/03/13 00:42:38;;;;;;;;;;;7.10;41.20;;;;;;2295840;58;20072;-77
2022/03/13 00:45:06;;;;;;;;;;;7.10;41.10;;;;;;2531726;55;20112;-79
2022/03/13 00:47:32;;;;;;;;;;;7.10;40.50;;;;;;2296277;58;20079;-78
2022/03/13 00:49:58;;;;;;;;;;;7.00;40.40;;;;;;2295789;58;20084;-81
2022/03/13 00:52:25;;;;;;;;;;;7.00;40.20;;;;;;2296234;58;20092;-79
2022/03/13 00:54:51;;;;;;;;;;;7.00;40.30;;;;;;2296269;58;20084;-79
2022/03/13 00:57:18;;;;;;;;;;;7.00;40.30;;;;;;2532287;55;20084;-79
2022/03/13 00:59:45;;;;;;;;;;;7.00;40.10;;;;;;2531544;55;20056;-78
2022/03/13 01:02:13;;;;;;;;;;;7.00;40.50;;;;;;2532083;55;20208;-81
2022/03/13 01:04:39;;;;;;;;;;;6.90;40.50;;;;;;2532220;55;20481;-83
2022/03/13 01:07:06;;;;;;;;;;;7.00;40.30;;;;;;2296249;58;20136;-80
2022/03/13 01:09:34;;;;;;;;;;;6.90;42.60;;;;;;2295826;58;20147;-79
2022/03/13 01:12:00;;;;;;;;;;;6.90;41.70;;;;;;2296549;58;20076;-78
2022/03/13 01:14:28;;;;;;;;;;;6.90;42.80;;;;;;2296258;58;20109;-77
2022/03/13 01:17:00;;;;;;;;;;;6.90;44.50;;;;;;2296035;58;20336;-78
2022/03/13 01:19:26;;;;;;;;;;;6.90;45.10;;;;;;2295828;58;20068;-79
2022/03/13 01:21:53;;;;;;;;;;;6.80;42.20;;;;;;2295396;58;20474;-81
2022/03/13 01:24:26;;;;;;;;;;;6.80;41.20;;;;;;2296089;58;20076;-81
2022/03/13 01:26:53;;;;;;;;;;;6.80;41.20;;;;;;2532651;55;20124;-78
2022/03/13 01:29:20;;;;;;;;;;;6.80;41.50;;;;;;2532268;55;20065;-79
2022/03/13 01:31:47;;;;;;;;;;;6.80;41.50;;;;;;2296238;58;20056;-79
2022/03/13 01:34:25;;;;;;;;;;;6.70;41.40;;;;;;2294615;58;20865;-78
2022/03/13 01:36:51;;;;;;;;;;;6.70;42.30;;;;;;2532868;55;20072;-79
2022/03/13 01:39:18;;;;;;;;;;;6.70;42.50;;;;;;2295322;58;20392;-79
2022/03/13 01:41:44;;;;;;;;;;;6.60;41.30;;;;;;2295876;58;20085;-78
2022/03/13 01:44:11;;;;;;;;;;;6.60;42.10;;;;;;2532811;55;20329;-78
2022/03/13 01:46:37;;;;;;;;;;;6.60;43.00;;;;;;2296657;58;20068;-79
2022/03/13 01:49:05;;;;;;;;;;;6.60;42.80;;;;;;2532070;55;20076;-78
2022/03/13 01:51:32;;;;;;;;;;;6.60;42.40;;;;;;2295034;58;20348;-78
2022/03/13 01:54:01;;;;;;;;;;;6.60;42.40;;;;;;2296393;58;20081;-81
2022/03/13 01:56:29;;;;;;;;;;;6.60;42.80;;;;;;2531179;55;20301;-78
2022/03/13 01:58:56;;;;;;;;;;;6.60;42.40;;;;;;2295659;58;20338;-78
2022/03/13 02:01:24;;;;;;;;;;;6.50;42.80;;;;;;2296115;58;20112;-79
2022/03/13 02:03:50;;;;;;;;;;;6.50;43.20;;;;;;2295673;58;20068;-80
2022/03/13 02:06:18;;;;;;;;;;;6.50;41.40;;;;;;2295967;58;20191;-81
2022/03/13 02:08:45;;;;;;;;;;;6.40;42.60;;;;;;2294770;58;20413;-77
2022/03/13 02:11:14;;;;;;;;;;;6.40;43.40;;;;;;2296372;58;20128;-80
2022/03/13 02:13:41;;;;;;;;;;;6.40;43.60;;;;;;2295878;58;20313;-80
2022/03/13 02:16:07;;;;;;;;;;;6.40;43.30;;;;;;2532035;55;20112;-79
2022/03/13 02:18:34;;;;;;;;;;;6.40;42.50;;;;;;2296202;58;20472;-81
2022/03/13 02:21:00;;;;;;;;;;;6.40;42.60;;;;;;2280877;54;20113;-82
2022/03/13 02:23:27;;;;;;;;;;;6.30;43.20;;;;;;2500387;55;20065;-81
2022/03/13 02:25:56;;;;;;;;;;;6.40;43.50;;;;;;2499827;54;20386;-80
2022/03/13 02:28:23;;;;;;;;;;;6.30;43.10;;;;;;2270887;59;20121;-81
2022/03/13 02:30:50;;;;;;;;;;;6.30;43.40;;;;;;2515426;55;20064;-80
2022/03/13 02:33:18;;;;;;;;;;;6.30;43.40;;;;;;2532553;55;20127;-81
2022/03/13 02:35:48;;;;;;;;;;;6.30;43.10;;;;;;2296581;58;20084;-82
2022/03/13 02:38:14;;;;;;;;;;;6.20;42.60;;;;;;2532159;55;20099;-81
2022/03/13 02:40:41;;;;;;;;;;;6.20;43.30;;;;;;2532146;55;20052;-81
2022/03/13 02:43:07;;;;;;;;;;;6.20;43.30;;;;;;2296420;58;20088;-80
2022/03/13 02:45:35;;;;;;;;;;;6.20;42.80;;;;;;2531460;55;20340;-81
2022/03/13 02:48:02;;;;;;;;;;;6.10;42.60;;;;;;2296269;58;20083;-80
2022/03/13 02:50:29;;;;;;;;;;;6.10;42.90;;;;;;2295974;58;20155;-80
2022/03/13 02:52:55;;;;;;;;;;;6.00;43.10;;;;;;2532261;55;20306;-81
2022/03/13 02:55:22;;;;;;;;;;;6.00;43.50;;;;;;2296335;58;20155;-83
2022/03/13 02:57:48;;;;;;;;;;;6.00;44.20;;;;;;2532222;55;20179;-81
2022/03/13 03:00:16;;;;;;;;;;;6.00;44.00;;;;;;2531634;55;20347;-80
2022/03/13 03:02:43;;;;;;;;;;;5.90;43.00;;;;;;2532246;55;20259;-82
2022/03/13 03:05:10;;;;;;;;;;;5.90;43.20;;;;;;2531407;55;20071;-81
2022/03/13 03:07:37;;;;;;;;;;;5.90;43.10;;;;;;2296369;58;20057;-81
2022/03/13 03:10:05;;;;;;;;;;;5.90;43.10;;;;;;2531990;55;20076;-82
2022/03/13 03:12:33;;;;;;;;;;;5.90;43.80;;;;;;2296585;58;20305;-80
2022/03/13 03:15:00;;;;;;;;;;;5.90;43.70;;;;;;2532015;55;20068;-81
2022/03/13 03:17:26;;;;;;;;;;;5.90;43.10;;;;;;2296218;58;20084;-81
2022/03/13 03:19:53;;;;;;;;;;;5.90;43.50;;;;;;2531324;55;20112;-82
2022/03/13 03:22:19;;;;;;;;;;;5.80;42.70;;;;;;2296252;58;20325;-82
2022/03/13 03:24:48;;;;;;;;;;;5.80;44.40;;;;;;2296301;58;20080;-81
2022/03/13 03:27:15;;;;;;;;;;;5.80;44.20;;;;;;2296587;58;20132;-80
2022/03/13 03:29:42;;;;;;;;;;;5.80;43.70;;;;;;2296013;58;20083;-81
2022/03/13 03:32:09;;;;;;;;;;;5.80;43.80;;;;;;2296491;58;20073;-81
2022/03/13 03:34:35;;;;;;;;;;;5.80;44.00;;;;;;2296499;58;20063;-82
2022/03/13 03:37:02;;;;;;;;;;;5.70;44.00;;;;;;2296465;58;20364;-82
2022/03/13 03:39:30;;;;;;;;;;;5.70;43.40;;;;;;2531512;55;20073;-81
2022/03/13 03:41:56;;;;;;;;;;;5.70;43.60;;;;;;2530734;55;20116;-82
2022/03/13 03:44:23;;;;;;;;;;;5.70;44.30;;;;;;2296615;58;20120;-81
2022/03/13 03:46:50;;;;;;;;;;;5.70;45.10;;;;;;2532195;55;20418;-82
2022/03/13 03:49:18;;;;;;;;;;;5.70;44.80;;;;;;2296020;58;20064;-82
2022/03/13 03:51:44;;;;;;;;;;;5.70;45.00;;;;;;2532091;55;20104;-83
2022/03/13 03:54:11;;;;;;;;;;;5.70;46.10;;;;;;2296430;58;20064;-83
2022/03/13 03:56:38;;;;;;;;;;;5.70;45.50;;;;;;2531929;55;20088;-82
2022/03/13 03:59:05;;;;;;;;;;;5.60;45.50;;;;;;2531025;55;20132;-82
2022/03/13 04:01:36;;;;;;;;;;;5.60;45.30;;;;;;2531978;55;20085;-81
2022/03/13 04:04:04;;;;;;;;;;;5.60;45.20;;;;;;2296687;58;20143;-83
2022/03/13 04:06:33;;;;;;;;;;;5.60;45.70;;;;;;2296503;58;20104;-83
2022/03/13 04:08:59;;;;;;;;;;;5.60;45.20;;;;;;2531715;55;20073;-83
2022/03/13 04:11:26;;;;;;;;;;;5.50;45.50;;;;;;2296337;58;20302;-81
2022/03/13 04:13:52;;;;;;;;;;;5.60;45.30;;;;;;2531893;55;20313;-80
2022/03/13 04:16:19;;;;;;;;;;;5.50;44.70;;;;;;2531829;55;20303;-81
2022/03/13 04:18:45;;;;;;;;;;;5.50;44.20;;;;;;2531393;55;20069;-78
2022/03/13 04:21:12;;;;;;;;;;;5.40;44.40;;;;;;2531491;54;20076;-80
2022/03/13 04:23:38;;;;;;;;;;;5.40;44.80;;;;;;2296154;58;20084;-78
2022/03/13 04:26:05;;;;;;;;;;;5.40;44.30;;;;;;2295859;58;20132;-80
2022/03/13 04:28:32;;;;;;;;;;;5.40;45.00;;;;;;2531377;55;20305;-80
2022/03/13 04:31:00;;;;;;;;;;;5.40;45.00;;;;;;2530797;55;20160;-80
2022/03/13 04:33:27;;;;;;;;;;;5.40;45.20;;;;;;2531417;55;20072;-79
2022/03/13 04:35:55;;;;;;;;;;;5.30;45.20;;;;;;2295412;58;20324;-80
2022/03/13 04:38:23;;;;;;;;;;;5.40;45.40;;;;;;2295559;58;20052;-80
2022/03/13 04:40:52;;;;;;;;;;;5.40;45.50;;;;;;2295801;58;20093;-80
2022/03/13 04:43:20;;;;;;;;;;;5.30;45.40;;;;;;2296142;58;20451;-80
2022/03/13 04:45:46;;;;;;;;;;;5.30;45.30;;;;;;2296098;58;20093;-81
2022/03/13 04:48:13;;;;;;;;;;;5.30;44.70;;;;;;2531915;55;20297;-80
2022/03/13 04:50:39;;;;;;;;;;;5.20;44.40;;;;;;2295813;58;20155;-80
2022/03/13 04:53:06;;;;;;;;;;;5.20;44.30;;;;;;2532030;55;20076;-79
2022/03/13 04:55:33;;;;;;;;;;;5.20;44.90;;;;;;2531863;55;20084;-80
2022/03/13 04:57:59;;;;;;;;;;;5.20;45.30;;;;;;2295862;58;20316;-83
2022/03/13 05:00:27;;;;;;;;;;;5.20;45.00;;;;;;2296148;58;20344;-82
2022/03/13 05:02:54;;;;;;;;;;;5.20;44.90;;;;;;2531897;55;20072;-83
2022/03/13 05:05:21;;;;;;;;;;;5.10;44.80;;;;;;2296176;58;20088;-81
2022/03/13 05:07:48;;;;;;;;;;;5.10;44.80;;;;;;2296231;58;20071;-82
2022/03/13 05:10:15;;;;;;;;;;;5.10;45.30;;;;;;2531800;55;20108;-83
2022/03/13 05:12:43;;;;;;;;;;;5.10;46.40;;;;;;2532424;55;20088;-83
2022/03/13 05:15:10;;;;;;;;;;;5.10;45.10;;;;;;2531936;55;20076;-83
2022/03/13 05:17:36;;;;;;;;;;;5.00;44.60;;;;;;2295680;58;20068;-82
2022/03/13 05:20:03;;;;;;;;;;;5.10;44.70;;;;;;2296419;58;20084;-81
2022/03/13 05:22:30;;;;;;;;;;;5.00;45.50;;;;;;2532327;54;20148;-81
2022/03/13 05:24:56;;;;;;;;;;;5.00;44.30;;;;;;2296810;58;20081;-81
2022/03/13 05:27:23;;;;;;;;;;;4.90;44.10;;;;;;2532401;55;20061;-82
2022/03/13 05:29:49;;;;;;;;;;;4.90;44.20;;;;;;2295966;58;20635;-82
2022/03/13 05:34:52;;;;;;;;;;;4.90;44.60;;;;;;2357784;57;20061;-74
2022/03/13 05:37:18;;;;;;;;;;;4.80;44.90;;;;;;2377217;56;20093;-76
2022/03/13 05:39:45;;;;;;;;;;;4.80;44.10;;;;;;2376459;56;20236;-75
2022/03/13 05:42:12;;;;;;;;;;;4.80;44.70;;;;;;2606810;52;20338;-75
2022/03/13 05:44:39;;;;;;;;;;;4.80;45.30;;;;;;2349300;57;20082;-75
2022/03/13 05:47:06;;;;;;;;;;;4.80;44.80;;;;;;2349595;57;20126;-75
2022/03/13 05:49:33;;;;;;;;;;;4.70;45.70;;;;;;2348784;57;20075;-75
2022/03/13 05:52:00;;;;;;;;;;;4.70;45.20;;;;;;2347353;57;20098;-75
2022/03/13 05:54:27;;;;;;;;;;;4.70;45.60;;;;;;2349557;57;20133;-75
2022/03/13 05:56:54;;;;;;;;;;;4.80;46.50;;;;;;2349424;57;20130;-75
2022/03/13 05:59:21;;;;;;;;;;;4.70;45.60;;;;;;2348755;57;20083;-74
2022/03/13 06:01:48;;;;;;;;;;;4.70;45.70;;;;;;2349170;57;20083;-75
2022/03/13 06:04:14;;;;;;;;;;;4.70;45.30;;;;;;2349115;57;20062;-74
2022/03/13 06:06:41;;;;;;;;;;;4.70;44.80;;;;;;2349326;57;20074;-75
2022/03/13 06:09:07;;;;;;;;;;;4.70;44.80;;;;;;2348630;57;20157;-75
2022/03/13 06:11:34;;;;;;;;;;;4.70;44.50;;;;;;2349241;57;20094;-76
2022/03/13 06:14:00;;;;;;;;;;;4.70;44.80;;;;;;2348688;57;20309;-76
2022/03/13 06:16:27;;;;;;;;;;;4.70;44.50;;;;;;2349372;57;20341;-75
2022/03/13 06:18:53;;;;;;;;;;;4.70;44.30;;;;;;2596140;53;20114;-75
2022/03/13 06:21:20;;;;;;;;;;;4.70;45.10;;;;;;2348795;57;20153;-75
2022/03/13 06:23:46;;;;;;;;;;;4.70;44.60;;;;;;2348623;57;20157;-75
2022/03/13 06:26:13;;;;;;;;;;;4.60;44.80;;;;;;2349040;57;20062;-75
2022/03/13 06:28:40;;;;;;;;;;;4.70;44.50;;;;;;2348928;57;20081;-75
2022/03/13 06:31:06;;;;;;;;;;;4.70;43.90;;;;;;2349368;57;20078;-75
2022/03/13 06:33:33;;;;;;;;;;;4.70;44.50;;;;;;2349017;57;20087;-75
2022/03/13 06:35:59;;;;;;;;;;;4.70;44.60;;;;;;2349156;57;20126;-74
2022/03/13 06:38:26;;;;;;;;;;;4.70;45.40;;;;;;2348622;57;20117;-75
2022/03/13 06:40:52;;;;;;;;;;;4.80;45.10;;;;;;2349049;57;20399;-76
2022/03/13 06:43:19;;;;;;;;;;;4.80;45.90;;;;;;2349047;57;20086;-74
2022/03/13 06:45:45;;;;;;;;;;;4.70;44.50;;;;;;2348561;57;20082;-75
2022/03/13 06:48:14;;;;;;;;;;;4.80;44.90;;;;;;2348124;57;20126;-75
2022/03/13 06:50:40;;;;;;;;;;;4.80;46.20;;;;;;2347766;57;20150;-74
2022/03/13 06:53:07;;;;;;;;;;;4.80;46.40;;;;;;2347917;57;20118;-75
2022/03/13 06:55:34;;;;;;;;;;;4.80;45.50;;;;;;2348169;57;20129;-75
2022/03/13 06:58:00;;;;;;;;;;;4.80;46.10;;;;;;2348448;57;20181;-75
2022/03/13 07:00:27;;;;;;;;;;;4.80;45.70;;;;;;2348019;57;20280;-74
2022/03/13 07:02:53;;;;;;;;;;;4.80;45.20;;;;;;2348162;57;20078;-74
2022/03/13 07:05:20;;;;;;;;;;;4.80;45.60;;;;;;2347894;57;20270;-75
2022/03/13 07:07:46;;;;;;;;;;;4.90;46.00;;;;;;2594285;53;20154;-74
2022/03/13 07:10:13;;;;;;;;;;;4.90;46.00;;;;;;2347592;57;20305;-74
2022/03/13 07:12:41;;;;;;;;;;;4.90;45.10;;;;;;2348307;57;20082;-74
2022/03/13 07:15:12;;;;;;;;;;;4.90;45.50;;;;;;2348641;57;20058;-74
2022/03/13 07:17:38;;;;;;;;;;;5.00;46.20;;;;;;2348364;57;20123;-74
2022/03/13 07:20:06;;;;;;;;;;;5.00;44.90;;;;;;2348238;57;20193;-75
2022/03/13 07:22:33;;;;;;;;;;;4.90;44.10;;;;;;2594215;52;20074;-74
2022/03/13 07:24:59;;;;;;;;;;;4.90;44.80;;;;;;2348114;57;20110;-76
2022/03/13 07:27:26;;;;;;;;;;;4.90;45.20;;;;;;2348218;57;20471;-74
2022/03/13 07:29:52;;;;;;;;;;;5.00;45.90;;;;;;2347226;57;20079;-74
2022/03/13 07:32:20;;;;;;;;;;;5.10;46.60;;;;;;2347916;57;20093;-73
2022/03/13 07:34:46;;;;;;;;;;;5.10;46.70;;;;;;2348058;57;20079;-73
2022/03/13 07:37:13;;;;;;;;;;;5.10;46.40;;;;;;2348406;57;20336;-74
2022/03/13 07:39:41;;;;;;;;;;;5.20;46.90;;;;;;2345646;57;20165;-75
2022/03/13 07:42:09;;;;;;;;;;;5.20;45.50;;;;;;2347793;57;20122;-73
2022/03/13 07:44:35;;;;;;;;;;;5.20;45.30;;;;;;2348128;57;20339;-73
2022/03/13 07:47:02;;;;;;;;;;;5.20;45.00;;;;;;2348450;57;20086;-73
2022/03/13 07:49:28;;;;;;;;;;;5.20;44.80;;;;;;2348100;57;20074;-74
2022/03/13 07:51:55;;;;;;;;;;;5.30;44.30;;;;;;2347958;57;20354;-74
2022/03/13 07:54:21;;;;;;;;;;;5.30;45.30;;;;;;2347920;57;20067;-73
2022/03/13 07:56:48;;;;;;;;;;;5.40;45.80;;;;;;2347900;57;20105;-74
2022/03/13 07:59:14;;;;;;;;;;;5.40;45.00;;;;;;2347911;57;20231;-73
2022/03/13 08:01:41;;;;;;;;;;;5.50;45.20;;;;;;2594852;52;20431;-76
2022/03/13 08:04:07;;;;;;;;;;;5.50;45.60;;;;;;2347608;57;20134;-76
2022/03/13 08:06:35;;;;;;;;;;;5.60;45.10;;;;;;2347600;57;20381;-76
2022/03/13 08:09:02;;;;;;;;;;;5.60;45.10;;;;;;2346196;57;20078;-75
2022/03/13 08:11:28;;;;;;;;;;;5.60;45.40;;;;;;2593944;52;20063;-76
2022/03/13 08:13:55;;;;;;;;;;;5.60;44.10;;;;;;2346263;57;20126;-74
2022/03/13 08:18:57;;;;;;;;;;;5.70;44.40;;;;;;2301141;58;20351;-74
2022/03/13 08:21:23;;;;;;;;;;;5.70;44.90;;;;;;2404406;55;20117;-73
2022/03/13 08:23:50;;;;;;;;;;;5.80;45.10;;;;;;2268331;59;20775;-71
2022/03/13 08:26:16;;;;;;;;;;;5.90;45.70;;;;;;2269603;59;20389;-72
2022/03/13 08:28:43;;;;;;;;;;;5.90;44.70;;;;;;2269434;59;20359;-71
2022/03/13 08:31:09;;;;;;;;;;;5.90;44.60;;;;;;2270052;59;20089;-71
2022/03/13 08:33:36;;;;;;;;;;;6.00;43.70;;;;;;2269454;59;20077;-71
2022/03/13 08:36:03;;;;;;;;;;;6.00;44.30;;;;;;2269524;59;20312;-70
2022/03/13 08:38:29;;;;;;;;;;;6.10;44.10;;;;;;2270088;59;20085;-70
2022/03/13 08:40:56;;;;;;;;;;;6.10;44.30;;;;;;2269621;59;20145;-71
2022/03/13 08:43:22;;;;;;;;;;;6.10;44.10;;;;;;2270292;59;20379;-72
2022/03/13 08:45:49;;;;;;;;;;;6.20;44.60;;;;;;2270143;59;20073;-72
2022/03/13 08:48:15;;;;;;;;;;;6.20;43.70;;;;;;2269874;59;20159;-71
2022/03/13 08:50:42;;;;;;;;;;;6.30;44.40;;;;;;2269385;59;20101;-72
2022/03/13 08:53:08;;;;;;;;;;;6.30;44.10;;;;;;2269778;59;20088;-72
2022/03/13 08:55:35;;;;;;;;;;;6.40;44.90;;;;;;2498462;55;20114;-73
2022/03/13 08:58:01;;;;;;;;;;;6.40;45.00;;;;;;2268828;59;20065;-73
2022/03/13 09:00:27;;;;;;;;;;;6.40;44.30;;;;;;2269074;59;20073;-73
2022/03/13 09:02:54;;;;;;;;;;;6.50;44.40;;;;;;2269025;59;20118;-74
2022/03/13 09:05:21;;;;;;;;;;;6.50;43.30;;;;;;2269515;59;20081;-76
2022/03/13 09:07:47;;;;;;;;;;;6.60;44.10;;;;;;2269339;59;20081;-75
2022/03/13 09:10:14;;;;;;;;;;;6.60;43.40;;;;;;2268709;59;20069;-74
2022/03/13 09:12:40;;;;;;;;;;;6.70;44.00;;;;;;2499724;55;20050;-73
2022/03/13 09:15:08;;;;;;;;;;;6.70;46.50;;;;;;2269455;59;20391;-73
2022/03/13 09:17:35;;;;;;;;;;;6.80;48.40;;;;;;2269853;59;20073;-73
2022/03/13 09:20:03;;;;;;;;;;;6.90;51.00;;;;;;2269316;59;20085;-73
2022/03/13 09:22:30;;;;;;;;;;;7.00;51.70;;;;;;2499083;54;20333;-71
2022/03/13 09:24:57;;;;;;;;;;;7.10;52.30;;;;;;2269308;59;20133;-72
2022/03/13 09:27:24;;;;;;;;;;;7.20;52.80;;;;;;2269476;59;20323;-72
2022/03/13 09:29:50;;;;;;;;;;;7.30;51.70;;;;;;2267920;59;20066;-74
2022/03/13 09:32:17;;;;;;;;;;;7.40;53.70;;;;;;2268553;59;20124;-74
2022/03/13 09:34:44;;;;;;;;;;;7.50;52.90;;;;;;2266464;59;20089;-75
2022/03/13 09:37:10;;;;;;;;;;;7.60;51.00;;;;;;2268095;59;20089;-74
2022/03/13 09:39:37;;;;;;;;;;;7.70;49.20;;;;;;2267541;59;20121;-74
2022/03/13 09:42:04;;;;;;;;;;;7.80;47.40;;;;;;2268233;59;20077;-74
2022/03/13 09:44:30;;;;;;;;;;;7.80;46.10;;;;;;2268198;59;20137;-73
2022/03/13 09:46:57;;;;;;;;;;;7.90;44.00;;;;;;2268080;59;20073;-73
2022/03/13 09:49:24;;;;;;;;;;;7.90;43.30;;;;;;2267804;59;20070;-74
2022/03/13 09:51:51;;;;;;;;;;;8.00;43.10;;;;;;2498105;55;20113;-74
2022/03/13 09:54:17;;;;;;;;;;;8.00;43.30;;;;;;2267900;59;20344;-72
2022/03/13 09:56:44;;;;;;;;;;;8.00;42.10;;;;;;2268383;59;20324;-74
2022/03/13 09:59:10;;;;;;;;;;;8.10;40.80;;;;;;2267105;59;20173;-72
2022/03/13 10:01:37;;;;;;;;;;;8.10;41.80;;;;;;2268857;59;20105;-74
2022/03/13 10:04:06;;;;;;;;;;;8.10;39.90;;;;;;2267092;59;20097;-74
2022/03/13 10:06:59;;;;;;;;;;;8.10;40.00;;;;;;2268207;59;20136;-73
2022/03/13 10:09:26;;;;;;;;;;;8.10;39.20;;;;;;2498214;55;20144;-73
2022/03/13 10:12:02;;;;;;;;;;;8.20;38.40;;;;;;2268768;59;20140;-72
2022/03/13 10:14:29;;;;;;;;;;;8.20;40.20;;;;;;2268427;59;20144;-72
2022/03/13 10:16:55;;;;;;;;;;;8.20;41.00;;;;;;2268557;59;20129;-72
2022/03/13 10:19:24;;;;;;;;;;;8.30;39.90;;;;;;2268205;59;20073;-72
2022/03/13 10:22:01;;;;;;;;;;;8.30;39.80;;;;;;2267008;59;20335;-72
2022/03/13 10:24:27;;;;;;;;;;;8.40;38.20;;;;;;2268979;59;20138;-72
2022/03/13 10:27:07;;;;;;;;;;;8.40;39.20;;;;;;2268617;59;20089;-73
2022/03/13 10:29:34;;;;;;;;;;;8.50;39.90;;;;;;2268307;59;20081;-73
2022/03/13 10:32:00;;;;;;;;;;;8.50;40.50;;;;;;2268571;59;20209;-73
2022/03/13 10:34:28;;;;;;;;;;;8.50;38.90;;;;;;2269011;59;20069;-73
2022/03/13 10:36:54;;;;;;;;;;;8.60;39.10;;;;;;2268393;59;20096;-73
2022/03/13 10:39:21;;;;;;;;;;;8.60;39.30;;;;;;2496351;55;20137;-73
2022/03/13 10:41:53;;;;;;;;;;;8.70;39.80;;;;;;2268159;59;20081;-73
2022/03/13 10:44:22;;;;;;;;;;;8.70;37.70;;;;;;2268636;59;20129;-73
2022/03/13 10:46:52;;;;;;;;;;;8.80;37.20;;;;;;2498903;55;20169;-73
2022/03/13 10:49:31;;;;;;;;;;;8.80;38.40;;;;;;2267032;59;20093;-73
2022/03/13 10:51:59;;;;;;;;;;;8.90;38.10;;;;;;2268090;59;20090;-74
2022/03/13 10:54:27;;;;;;;;;;;8.90;39.10;;;;;;2268464;59;20073;-73
2022/03/13 10:57:05;;;;;;;;;;;9.00;39.00;;;;;;2268569;59;20173;-73
2022/03/13 10:59:31;;;;;;;;;;;9.10;40.00;;;;;;2268193;59;20086;-74
2022/03/13 11:02:10;;;;;;;;;;;9.10;39.60;;;;;;2498375;55;20085;-76
2022/03/13 11:04:44;;;;;;;;;;;9.20;40.20;;;;;;2498367;55;20121;-73
2022/03/13 11:07:11;;;;;;;;;;;9.30;40.80;;;;;;2268775;59;20073;-73
2022/03/13 11:09:37;;;;;;;;;;;9.30;40.20;;;;;;2268086;59;20077;-72
2022/03/13 11:12:06;;;;;;;;;;;9.40;39.60;;;;;;2268573;59;20092;-74
2022/03/13 11:14:34;;;;;;;;;;;9.50;39.20;;;;;;2498663;55;20069;-73
2022/03/13 11:17:01;;;;;;;;;;;9.60;39.60;;;;;;2268581;59;20149;-73
2022/03/13 11:19:28;;;;;;;;;;;9.70;39.40;;;;;;2268287;59;20136;-73
2022/03/13 11:21:55;;;;;;;;;;;9.80;38.40;;;;;;2267684;59;20357;-73
2022/03/13 11:24:23;;;;;;;;;;;9.90;37.00;;;;;;2268770;59;20073;-74
2022/03/13 11:26:50;;;;;;;;;;;9.90;38.50;;;;;;2268255;59;20145;-74
2022/03/13 11:29:39;;;;;;;;;;;10.00;38.20;;;;;;2268052;59;20069;-73
2022/03/13 11:32:27;;;;;;;;;;;10.10;39.80;;;;;;2498481;55;20382;-71
2022/03/13 11:35:13;;;;;;;;;;;10.30;38.70;;;;;;2268649;59;20087;-72
2022/03/13 11:37:41;;;;;;;;;;;10.40;38.20;;;;;;2268261;59;20114;-74
2022/03/13 11:40:09;;;;;;;;;;;10.40;38.30;;;;;;2268291;59;20312;-74
2022/03/13 11:42:45;;;;;;;;;;;10.60;36.40;;;;;;2268671;59;20077;-73
2022/03/13 11:45:30;;;;;;;;;;;10.60;36.80;;;;;;2268135;59;20069;-75
2022/03/13 11:47:56;;;;;;;;;;;10.70;35.00;;;;;;2498577;55;20161;-73
2022/03/13 11:50:45;;;;;;;;;;;10.80;34.30;;;;;;2267941;59;20081;-74
2022/03/13 11:53:18;;;;;;;;;;;10.90;33.50;;;;;;2267397;59;20066;-74
2022/03/13 11:56:02;;;;;;;;;;;10.90;32.90;;;;;;2265128;59;20081;-76
2022/03/13 11:58:39;;;;;;;;;;;11.00;31.80;;;;;;2266894;59;20085;-74
2022/03/13 12:01:06;;;;;;;;;;;11.00;33.10;;;;;;2265878;59;20145;-76
2022/03/13 12:03:33;;;;;;;;;;;11.10;32.10;;;;;;2497251;55;20069;-75
2022/03/13 12:05:59;;;;;;;;;;;11.10;31.70;;;;;;2497448;55;20486;-75
2022/03/13 12:09:03;;;;;;;;;;;11.20;31.60;;;;;;2268250;59;20085;-75
2022/03/13 12:11:38;;;;;;;;;;;11.30;31.60;;;;;;2268630;59;20078;-75
2022/03/13 12:14:07;;;;;;;;;;;11.30;32.70;;;;;;2498587;55;20053;-74
2022/03/13 12:16:33;;;;;;;;;;;11.40;31.90;;;;;;2269095;59;20121;-73
2022/03/13 12:19:01;;;;;;;;;;;11.50;30.90;;;;;;2266014;59;20077;-74
2022/03/13 12:21:27;;;;;;;;;;;11.60;31.50;;;;;;2268440;59;20097;-75
2022/03/13 12:23:56;;;;;;;;;;;11.60;31.70;;;;;;2268059;59;20121;-74
2022/03/13 12:26:27;;;;;;;;;;;11.70;31.60;;;;;;2498274;55;20237;-72
2022/03/13 12:28:55;;;;;;;;;;;11.70;30.70;;;;;;2266981;59;20061;-75
2022/03/13 12:31:22;;;;;;;;;;;11.80;31.10;;;;;;2267816;59;20077;-75
2022/03/13 12:33:49;;;;;;;;;;;11.90;30.50;;;;;;2268153;59;20089;-75
2022/03/13 12:36:16;;;;;;;;;;;12.00;31.30;;;;;;2267790;59;20085;-74
2022/03/13 12:38:43;;;;;;;;;;;12.00;30.40;;;;;;2268097;59;20136;-75
2022/03/13 12:41:11;;;;;;;;;;;12.10;30.10;;;;;;2268431;59;20133;-74
2022/03/13 12:43:48;;;;;;;;;;;12.10;30.90;;;;;;2268483;59;20169;-74
2022/03/13 12:46:17;;;;;;;;;;;12.20;32.80;;;;;;2268754;59;20141;-75
2022/03/13 12:48:50;;;;;;;;;;;12.20;33.70;;;;;;2268384;59;20066;-72
2022/03/13 12:51:38;;;;;;;;;;;12.30;32.80;;;;;;2267288;59;20148;-74
2022/03/13 12:54:07;;;;;;;;;;;12.40;32.20;;;;;;2267816;59;20093;-75
2022/03/13 12:56:35;;;;;;;;;;;12.40;30.80;;;;;;2268764;59;20077;-75
2022/03/13 12:59:01;;;;;;;;;;;12.40;30.10;;;;;;2267015;59;20073;-74
2022/03/13 13:01:28;;;;;;;;;;;12.50;32.00;;;;;;2266956;59;20077;-74
2022/03/13 13:03:55;;;;;;;;;;;12.50;32.10;;;;;;2266439;59;20118;-74
2022/03/13 13:06:32;;;;;;;;;;;12.60;34.10;;;;;;2266656;59;20085;-75
2022/03/13 13:08:58;;;;;;;;;;;12.60;34.10;;;;;;2266946;59;20081;-73
2022/03/13 13:11:29;;;;;;;;;;;12.70;34.40;;;;;;2267004;59;20331;-74
2022/03/13 13:13:57;;;;;;;;;;;12.70;33.20;;;;;;2267090;59;20069;-74
2022/03/13 13:16:24;;;;;;;;;;;12.80;33.50;;;;;;2268258;59;20141;-73
2022/03/13 13:21:33;;;;;;;;;;;12.80;32.20;;;;;;2347407;57;20073;-75
2022/03/13 13:24:00;;;;;;;;;;;12.90;31.90;;;;;;2350562;57;20261;-78
2022/03/13 13:26:40;;;;;;;;;;;13.00;30.20;;;;;;2350578;57;20261;-75
2022/03/13 13:29:06;;;;;;;;;;;13.00;30.60;;;;;;2349873;57;20327;-77
2022/03/13 13:31:33;;;;;;;;;;;13.00;30.40;;;;;;2350665;57;20082;-76
2022/03/13 13:34:12;;;;;;;;;;;13.00;29.90;;;;;;2348455;57;20090;-77
2022/03/13 13:36:38;;;;;;;;;;;13.00;32.70;;;;;;2349364;57;20146;-77
2022/03/13 13:39:05;;;;;;;;;;;13.10;30.30;;;;;;2348029;57;20116;-76
2022/03/13 13:41:34;;;;;;;;;;;13.10;31.00;;;;;;2349680;57;20070;-76
2022/03/13 13:44:00;;;;;;;;;;;13.10;31.40;;;;;;2348737;57;20130;-76
2022/03/13 13:46:29;;;;;;;;;;;13.20;31.30;;;;;;2349952;57;20086;-76
2022/03/13 13:48:56;;;;;;;;;;;13.20;29.80;;;;;;2349223;57;20074;-76
2022/03/13 13:51:31;;;;;;;;;;;13.30;29.90;;;;;;2348117;57;20188;-77
2022/03/13 13:54:04;;;;;;;;;;;13.30;29.90;;;;;;2349327;57;20119;-76
2022/03/13 13:56:32;;;;;;;;;;;13.30;29.10;;;;;;2349959;57;20138;-78
2022/03/13 13:59:12;;;;;;;;;;;13.30;28.40;;;;;;2349703;57;20066;-77
2022/03/13 14:01:39;;;;;;;;;;;13.40;30.00;;;;;;2349722;57;20405;-76
2022/03/13 14:04:05;;;;;;;;;;;13.40;30.10;;;;;;2349555;57;20066;-77
2022/03/13 14:06:34;;;;;;;;;;;13.40;28.90;;;;;;2598674;53;20297;-79
2022/03/13 14:09:01;;;;;;;;;;;13.50;34.50;;;;;;2598406;53;20133;-76
2022/03/13 14:11:28;;;;;;;;;;;13.50;33.40;;;;;;2350822;57;20066;-78
2022/03/13 14:13:54;;;;;;;;;;;13.60;33.00;;;;;;2349211;57;20349;-75
2022/03/13 14:16:21;;;;;;;;;;;13.70;33.80;;;;;;2350031;57;20086;-75
2022/03/13 14:18:48;;;;;;;;;;;13.70;33.00;;;;;;2350136;57;20074;-75
2022/03/13 14:21:14;;;;;;;;;;;13.70;33.10;;;;;;2428128;52;70485;-80
2022/03/13 14:23:41;;;;;;;;;;;13.80;35.00;;;;;;2362817;57;20081;-78
2022/03/13 14:26:08;;;;;;;;;;;13.80;35.20;;;;;;2363377;57;20800;-78
2022/03/13 14:28:34;;;;;;;;;;;13.80;35.40;;;;;;2363831;57;20115;-79
2022/03/13 14:31:00;;;;;;;;;;;13.80;34.20;;;;;;2363559;57;20078;-79
2022/03/13 14:33:27;;;;;;;;;;;13.90;33.80;;;;;;2619150;53;20063;-79
2022/03/13 14:35:53;;;;;;;;;;;13.90;33.30;;;;;;2367682;57;20054;-79
2022/03/13 14:38:20;;;;;;;;;;;13.90;31.10;;;;;;2367646;57;20064;-79